Time;durP1;ratioP1;P1;durP2;ratioP2;P2;SDS_P1;SDS_P2;PMS_P1;PMS_P2;Temp;Humidity;BMP_temperature;BMP_pressure;BME280_temperature;BME280_humidity;BME280_pressure;Samples;Min_cycle;Max_cycle;Signal;HPM_P1;HPM_P2
2022/06/24 00:01:39;;;;;;;3.33;1.87;;;21.00;99.90;;;;;;5093891;28;20419;-58
2022/06/24 00:04:06;;;;;;;3.30;1.80;;;21.10;99.90;;;;;;5093825;28;20538;-58
2022/06/24 00:06:46;;;;;;;3.83;1.97;;;21.10;99.90;;;;;;5093429;28;20447;-58
2022/06/24 00:09:16;;;;;;;2.50;1.80;;;21.00;99.90;;;;;;5093739;28;20479;-58
2022/06/24 00:11:43;;;;;;;5.73;2.10;;;21.10;99.90;;;;;;5093367;28;20985;-58
2022/06/24 00:14:13;;;;;;;2.37;1.70;;;20.80;99.90;;;;;;5093400;28;20538;-58
2022/06/24 00:16:58;;;;;;;1.97;1.77;;;20.90;99.90;;;;;;5093961;28;20432;-58
2022/06/24 00:19:26;;;;;;;3.47;1.90;;;21.10;99.90;;;;;;5093221;28;20874;-58
2022/06/24 00:22:06;;;;;;;4.60;2.00;;;21.20;99.90;;;;;;5093696;28;20530;-58
2022/06/24 00:24:36;;;;;;;3.97;2.03;;;21.40;99.90;;;;;;5093637;28;20432;-58
2022/06/24 00:27:05;;;;;;;3.43;2.20;;;21.00;99.90;;;;;;5093353;28;20510;-58
2022/06/24 00:29:34;;;;;;;3.73;2.40;;;21.30;99.90;;;;;;5093154;28;20463;-58
2022/06/24 00:32:06;;;;;;;3.63;2.17;;;21.10;99.90;;;;;;5093495;28;20475;-58
2022/06/24 00:34:34;;;;;;;3.50;2.40;;;21.10;99.90;;;;;;5093279;28;20910;-58
2022/06/24 00:37:23;;;;;;;5.53;2.27;;;21.30;99.90;;;;;;5093477;28;20801;-58
2022/06/24 00:39:51;;;;;;;3.57;1.70;;;21.20;99.90;;;;;;5093448;28;20472;-58
2022/06/24 00:42:20;;;;;;;4.77;2.03;;;21.20;99.90;;;;;;5093429;28;20439;-58
2022/06/24 00:44:52;;;;;;;1.70;1.40;;;21.10;99.90;;;;;;5094856;28;20454;-58
2022/06/24 00:47:21;;;;;;;3.90;2.77;;;21.00;99.90;;;;;;5097401;28;20875;-58
2022/06/24 00:49:53;;;;;;;4.30;2.43;;;21.00;99.90;;;;;;5096986;28;20550;-58
2022/06/24 00:52:21;;;;;;;4.60;1.97;;;21.10;99.90;;;;;;5096975;28;20447;-58
2022/06/24 00:54:48;;;;;;;4.23;1.80;;;21.00;99.90;;;;;;5096948;28;20448;-58
2022/06/24 00:57:16;;;;;;;4.90;2.00;;;20.70;99.90;;;;;;5097228;28;20448;-58
2022/06/24 00:59:44;;;;;;;2.73;2.33;;;20.50;99.90;;;;;;5097102;28;20489;-58
2022/06/24 01:02:14;;;;;;;4.40;2.13;;;20.60;99.90;;;;;;5097120;28;20519;-58
2022/06/24 01:04:42;;;;;;;4.67;2.27;;;20.50;99.90;;;;;;5096773;28;20438;-58
2022/06/24 01:07:09;;;;;;;5.53;2.50;;;20.60;99.90;;;;;;5096699;28;20453;-58
2022/06/24 01:09:37;;;;;;;5.20;2.27;;;20.60;99.90;;;;;;5096903;28;20562;-58
2022/06/24 01:12:05;;;;;;;4.53;3.07;;;20.80;99.90;;;;;;5096524;28;21060;-58
2022/06/24 01:14:33;;;;;;;4.50;2.20;;;20.60;99.90;;;;;;5096865;28;20530;-58
2022/06/24 01:17:00;;;;;;;3.27;2.80;;;20.50;99.90;;;;;;5096474;28;20454;-58
2022/06/24 01:19:28;;;;;;;2.33;2.13;;;20.60;99.90;;;;;;5096720;28;20506;-58
2022/06/24 01:21:57;;;;;;;6.10;2.70;;;20.40;99.90;;;;;;5096428;28;20451;-58
2022/06/24 01:24:26;;;;;;;3.80;2.57;;;20.40;99.90;;;;;;5096381;28;20545;-58
2022/06/24 01:26:54;;;;;;;3.93;2.13;;;20.20;99.90;;;;;;5096384;28;20814;-58
2022/06/24 01:29:22;;;;;;;7.10;2.70;;;20.20;99.90;;;;;;5096229;28;21013;-58
2022/06/24 01:31:52;;;;;;;6.00;2.70;;;20.20;99.90;;;;;;5096108;28;21059;-58
2022/06/24 01:34:21;;;;;;;5.50;2.47;;;20.00;99.90;;;;;;5096466;28;20451;-57
2022/06/24 01:36:48;;;;;;;4.70;2.27;;;20.20;99.90;;;;;;5096096;28;20447;-58
2022/06/24 01:39:17;;;;;;;6.70;2.70;;;20.20;99.90;;;;;;5096554;28;20478;-57
2022/06/24 01:41:44;;;;;;;4.53;2.50;;;20.80;99.90;;;;;;5096346;28;20798;-58
2022/06/24 01:44:12;;;;;;;3.10;2.23;;;20.80;99.90;;;;;;5095965;28;20443;-58
2022/06/24 01:46:39;;;;;;;3.17;2.27;;;20.30;99.90;;;;;;5096261;28;20863;-58
2022/06/24 01:49:07;;;;;;;6.80;3.00;;;20.10;99.90;;;;;;5096353;28;20475;-58
2022/06/24 01:51:35;;;;;;;4.40;2.47;;;20.00;99.90;;;;;;5095774;28;20926;-58
2022/06/24 01:54:03;;;;;;;4.20;3.03;;;20.10;99.90;;;;;;5095819;28;20447;-58
2022/06/24 01:56:32;;;;;;;4.90;3.73;;;20.30;99.90;;;;;;5094936;28;20496;-58
2022/06/24 01:58:59;;;;;;;10.27;3.13;;;20.20;99.90;;;;;;5095940;28;20534;-57
2022/06/24 02:01:26;;;;;;;8.20;2.87;;;20.00;99.90;;;;;;5095645;28;20449;-57
2022/06/24 02:03:54;;;;;;;3.50;3.20;;;19.90;99.90;;;;;;5095685;28;20435;-57
2022/06/24 02:06:21;;;;;;;6.00;3.20;;;19.80;99.90;;;;;;5095864;28;20448;-57
2022/06/24 02:08:49;;;;;;;4.30;3.10;;;19.80;99.90;;;;;;5095451;28;20534;-57
2022/06/24 02:14:06;;;;;;;7.47;3.23;;;20.00;99.90;;;;;;5095853;28;20403;-57
2022/06/24 02:16:33;;;;;;;5.47;3.03;;;20.00;99.90;;;;;;5095447;28;20428;-57
2022/06/24 02:19:01;;;;;;;6.70;3.33;;;20.00;99.90;;;;;;5095740;28;20459;-57
2022/06/24 02:21:28;;;;;;;4.50;2.53;;;19.90;99.90;;;;;;5095593;28;20479;-57
2022/06/24 02:24:00;;;;;;;7.30;2.73;;;19.90;99.90;;;;;;5095262;28;20447;-56
2022/06/24 02:26:27;;;;;;;6.17;3.53;;;20.30;99.90;;;;;;5095191;28;20807;-56
2022/06/24 02:28:55;;;;;;;5.77;2.70;;;20.60;99.90;;;;;;5095381;28;20447;-56
2022/06/24 02:31:24;;;;;;;4.10;2.40;;;20.30;99.90;;;;;;5095325;28;20470;-56
2022/06/24 02:33:51;;;;;;;4.30;2.60;;;20.20;99.90;;;;;;5095355;28;20467;-56
2022/06/24 02:36:19;;;;;;;3.03;2.60;;;20.30;99.90;;;;;;5095268;28;20810;-56
2022/06/24 02:38:46;;;;;;;5.60;2.67;;;20.30;99.90;;;;;;5094679;28;20475;-57
2022/06/24 02:41:14;;;;;;;7.20;2.60;;;20.20;99.90;;;;;;5094881;28;20954;-56
2022/06/24 02:43:41;;;;;;;5.13;3.07;;;20.30;99.90;;;;;;5094784;28;20930;-57
2022/06/24 02:46:10;;;;;;;4.50;2.83;;;20.40;99.90;;;;;;5095086;28;20875;-57
2022/06/24 02:48:40;;;;;;;8.70;2.83;;;20.30;99.90;;;;;;5094577;28;20649;-57
2022/06/24 02:51:10;;;;;;;5.57;3.50;;;20.20;99.90;;;;;;5094675;28;20451;-57
2022/06/24 02:53:38;;;;;;;4.73;2.80;;;20.20;99.90;;;;;;5095413;28;20482;-57
2022/06/24 02:56:07;;;;;;;3.80;2.70;;;20.10;99.90;;;;;;5094928;28;20448;-57
2022/06/24 02:58:34;;;;;;;3.60;2.77;;;20.00;99.90;;;;;;5094545;28;20448;-57
2022/06/24 03:01:03;;;;;;;3.73;3.00;;;20.20;99.90;;;;;;5094392;28;20468;-57
2022/06/24 03:03:31;;;;;;;4.67;2.83;;;20.10;99.90;;;;;;5094735;28;20473;-57
2022/06/24 03:05:59;;;;;;;3.97;2.60;;;20.00;99.90;;;;;;5094672;28;20535;-57
2022/06/24 03:08:27;;;;;;;8.43;2.90;;;19.90;99.90;;;;;;5094415;28;20530;-57
2022/06/24 03:10:55;;;;;;;4.10;2.73;;;19.60;99.90;;;;;;5094588;28;20474;-57
2022/06/24 03:13:22;;;;;;;2.67;2.40;;;19.70;99.90;;;;;;5094309;28;20562;-57
2022/06/24 03:15:49;;;;;;;8.67;2.50;;;19.70;99.90;;;;;;5094277;28;20451;-57
2022/06/24 03:18:17;;;;;;;4.53;3.20;;;19.90;99.90;;;;;;5094549;28;20459;-57
2022/06/24 03:20:45;;;;;;;6.03;3.10;;;19.60;99.90;;;;;;5094136;28;20965;-57
2022/06/24 03:23:14;;;;;;;5.03;2.37;;;19.70;99.90;;;;;;5094466;28;20470;-57
2022/06/24 03:25:41;;;;;;;5.27;3.07;;;19.40;99.90;;;;;;5094375;28;20494;-57
2022/06/24 03:28:08;;;;;;;8.77;3.73;;;19.10;99.90;;;;;;5094405;28;20482;-57
2022/06/24 03:30:35;;;;;;;11.17;3.67;;;18.90;99.90;;;;;;5094262;28;20815;-56
2022/06/24 03:33:03;;;;;;;4.87;3.77;;;18.80;99.90;;;;;;5093862;28;20471;-56
2022/06/24 03:35:30;;;;;;;6.50;3.20;;;18.90;99.90;;;;;;5094200;28;20450;-56
2022/06/24 03:37:57;;;;;;;6.70;3.00;;;19.00;99.90;;;;;;5093967;28;20474;-56
2022/06/24 03:40:26;;;;;;;5.50;3.30;;;19.00;99.90;;;;;;5094085;28;20470;-56
2022/06/24 03:42:53;;;;;;;4.70;3.13;;;19.00;99.90;;;;;;5093783;28;20446;-57
2022/06/24 03:45:20;;;;;;;6.80;3.40;;;19.00;99.90;;;;;;5094059;28;20805;-57
2022/06/24 03:47:48;;;;;;;6.43;5.73;;;19.10;99.90;;;;;;5093793;28;20447;-57
2022/06/24 03:50:15;;;;;;;8.50;3.67;;;19.00;99.90;;;;;;5093928;28;20889;-57
2022/06/24 03:52:42;;;;;;;5.90;2.70;;;19.40;99.90;;;;;;5093520;28;20486;-57
2022/06/24 03:55:10;;;;;;;5.70;3.10;;;19.60;99.90;;;;;;5093583;28;20453;-57
2022/06/24 03:57:39;;;;;;;6.03;2.93;;;19.40;99.90;;;;;;5093921;28;20459;-57
2022/06/24 04:00:09;;;;;;;5.37;2.70;;;19.40;99.90;;;;;;5093488;28;20977;-57
2022/06/24 04:02:36;;;;;;;3.27;2.33;;;19.30;99.90;;;;;;5093833;28;20530;-57
2022/06/24 04:05:04;;;;;;;7.07;4.17;;;19.40;99.90;;;;;;5093802;28;20478;-57
2022/06/24 04:07:31;;;;;;;4.17;2.77;;;19.40;99.90;;;;;;5093424;28;20455;-57
2022/06/24 04:09:58;;;;;;;4.43;3.50;;;19.30;99.90;;;;;;5093644;28;20906;-57
2022/06/24 04:12:25;;;;;;;4.17;2.87;;;19.10;99.90;;;;;;5093589;28;20562;-57
2022/06/24 04:17:38;;;;;;;8.20;3.20;;;19.00;99.90;;;;;;5093556;28;20853;-57
2022/06/24 04:20:07;;;;;;;7.60;3.60;;;19.20;99.90;;;;;;5095516;28;20498;-58
2022/06/24 04:22:34;;;;;;;3.00;2.63;;;19.40;99.90;;;;;;5097511;28;20440;-57
2022/06/24 04:25:01;;;;;;;5.87;4.57;;;19.20;99.90;;;;;;5097795;28;20453;-57
2022/06/24 04:27:29;;;;;;;5.90;3.07;;;19.20;99.90;;;;;;5097470;28;20938;-57
2022/06/24 04:30:00;;;;;;;7.80;3.27;;;19.00;99.90;;;;;;5097351;28;20980;-57
2022/06/24 04:32:28;;;;;;;5.20;2.90;;;19.00;99.90;;;;;;5097839;28;20451;-57
2022/06/24 04:34:56;;;;;;;10.97;4.10;;;19.10;99.90;;;;;;5097657;28;20530;-57
2022/06/24 04:37:23;;;;;;;6.70;3.13;;;19.60;99.90;;;;;;5097047;28;20866;-57
2022/06/24 04:39:50;;;;;;;6.20;2.70;;;19.70;99.90;;;;;;5097159;28;20470;-58
2022/06/24 04:42:17;;;;;;;5.30;2.97;;;20.00;99.90;;;;;;5097431;28;20534;-57
2022/06/24 04:44:46;;;;;;;7.67;4.07;;;20.10;99.90;;;;;;5097380;28;20447;-57
2022/06/24 04:47:15;;;;;;;6.53;3.50;;;20.30;99.90;;;;;;5097313;28;20780;-57
2022/06/24 04:49:42;;;;;;;8.13;3.00;;;20.40;99.90;;;;;;5097295;28;20496;-57
2022/06/24 04:52:09;;;;;;;7.77;3.23;;;20.50;99.90;;;;;;5097213;28;20437;-57
2022/06/24 04:54:36;;;;;;;7.67;4.03;;;20.80;99.90;;;;;;5097209;28;20443;-58
2022/06/24 04:57:05;;;;;;;7.33;3.77;;;20.70;99.90;;;;;;5097176;28;20530;-58
2022/06/24 04:59:32;;;;;;;6.37;2.87;;;20.60;99.90;;;;;;5097063;28;20497;-58
2022/06/24 05:01:59;;;;;;;5.20;3.10;;;20.50;99.90;;;;;;5097078;28;20550;-57
2022/06/24 05:04:28;;;;;;;5.00;3.07;;;20.40;99.90;;;;;;5097004;28;20443;-57
2022/06/24 05:06:55;;;;;;;9.33;6.83;;;20.40;99.90;;;;;;5096664;28;20508;-57
2022/06/24 05:09:22;;;;;;;5.83;2.70;;;20.50;99.90;;;;;;5096810;28;20869;-58
2022/06/24 05:11:50;;;;;;;4.70;3.30;;;20.60;99.90;;;;;;5096538;28;20481;-58
2022/06/24 05:14:17;;;;;;;5.37;3.30;;;20.70;99.90;;;;;;5096406;28;20838;-58
2022/06/24 05:16:45;;;;;;;3.37;2.60;;;20.70;99.90;;;;;;5096697;28;20448;-57
2022/06/24 05:19:12;;;;;;;10.00;3.00;;;20.60;99.90;;;;;;5096215;28;20562;-57
2022/06/24 05:21:41;;;;;;;6.37;3.70;;;20.50;99.90;;;;;;5096185;28;20542;-57
2022/06/24 05:24:09;;;;;;;4.93;2.97;;;20.70;99.90;;;;;;5096357;28;20534;-57
2022/06/24 05:26:36;;;;;;;6.10;3.20;;;20.70;99.90;;;;;;5097308;28;20479;-58
2022/06/24 05:29:04;;;;;;;6.53;3.73;;;20.90;99.90;;;;;;5096416;28;20887;-57
2022/06/24 05:31:31;;;;;;;4.33;3.77;;;21.00;99.90;;;;;;5096712;28;20454;-57
2022/06/24 05:33:58;;;;;;;6.67;2.80;;;21.00;99.90;;;;;;5096232;28;20529;-59
2022/06/24 05:36:26;;;;;;;7.47;3.60;;;21.00;99.90;;;;;;5095755;28;20534;-58
2022/06/24 05:38:55;;;;;;;9.83;2.43;;;21.00;99.90;;;;;;5096255;28;20471;-58
2022/06/24 05:41:22;;;;;;;3.87;2.97;;;21.20;99.90;;;;;;5095959;28;20443;-58
2022/06/24 05:43:50;;;;;;;7.83;3.00;;;21.10;99.90;;;;;;5096599;28;20443;-58
2022/06/24 05:46:17;;;;;;;5.60;2.50;;;21.20;99.90;;;;;;5096350;28;20443;-58
2022/06/24 05:48:44;;;;;;;10.53;2.80;;;21.40;99.90;;;;;;5095616;28;20545;-58
2022/06/24 05:51:13;;;;;;;7.93;4.20;;;21.50;99.90;;;;;;5095707;28;20452;-58
2022/06/24 05:56:27;;;;;;;4.57;3.60;;;21.20;99.90;;;;;;5096229;28;20489;-58
2022/06/24 05:58:54;;;;;;;8.27;4.70;;;21.20;99.90;;;;;;5095700;28;20496;-58
2022/06/24 06:01:22;;;;;;;5.87;2.93;;;21.40;99.90;;;;;;5095717;28;20537;-58
2022/06/24 06:03:49;;;;;;;4.23;3.50;;;21.40;99.90;;;;;;5095496;28;20434;-58
2022/06/24 06:06:16;;;;;;;5.17;3.20;;;21.30;99.90;;;;;;5095855;28;20482;-57
2022/06/24 06:08:44;;;;;;;3.87;2.80;;;21.30;99.90;;;;;;5095570;28;20542;-58
2022/06/24 06:11:13;;;;;;;5.30;3.50;;;21.30;99.90;;;;;;5095705;28;20469;-58
2022/06/24 06:13:42;;;;;;;10.30;2.90;;;21.50;99.90;;;;;;5095243;28;20475;-58
2022/06/24 06:16:09;;;;;;;7.20;3.13;;;21.60;99.90;;;;;;5095472;28;20517;-58
2022/06/24 06:18:37;;;;;;;7.40;3.00;;;21.80;99.90;;;;;;5095206;28;20462;-58
2022/06/24 06:21:05;;;;;;;7.40;3.83;;;21.70;99.90;;;;;;5095297;28;20869;-58
2022/06/24 06:23:33;;;;;;;7.10;3.00;;;21.80;99.90;;;;;;5094823;28;20496;-57
2022/06/24 06:26:02;;;;;;;10.73;3.53;;;22.00;99.90;;;;;;5095330;28;20504;-58
2022/06/24 06:28:29;;;;;;;7.00;3.03;;;22.10;99.90;;;;;;5094980;28;20447;-58
2022/06/24 06:30:58;;;;;;;3.20;2.83;;;21.90;99.90;;;;;;5094796;28;20554;-58
2022/06/24 06:33:25;;;;;;;4.50;2.80;;;22.10;99.90;;;;;;5094591;28;21068;-57
2022/06/24 06:35:52;;;;;;;11.90;3.30;;;21.90;99.90;;;;;;5094612;28;20518;-58
2022/06/24 06:38:20;;;;;;;6.00;4.00;;;22.00;99.90;;;;;;5094623;28;20532;-57
2022/06/24 06:40:47;;;;;;;5.07;3.30;;;22.10;99.90;;;;;;5095006;28;20672;-57
2022/06/24 06:43:14;;;;;;;5.37;3.40;;;22.10;99.90;;;;;;5094001;28;20443;-57
2022/06/24 06:45:41;;;;;;;3.17;2.77;;;22.10;99.90;;;;;;5094946;28;20501;-57
2022/06/24 06:48:10;;;;;;;4.03;3.00;;;22.10;99.90;;;;;;5094808;28;20486;-57
2022/06/24 06:50:38;;;;;;;5.37;3.60;;;21.90;99.90;;;;;;5094692;28;20485;-58
2022/06/24 06:53:05;;;;;;;6.90;3.27;;;22.00;99.90;;;;;;5094685;28;20483;-58
2022/06/24 06:55:32;;;;;;;5.93;3.40;;;22.20;99.90;;;;;;5094456;28;20550;-58
2022/06/24 06:57:59;;;;;;;11.60;3.07;;;22.40;99.90;;;;;;5094171;28;20505;-58
2022/06/24 07:00:26;;;;;;;4.57;3.27;;;22.70;99.90;;;;;;5094689;28;20499;-58
2022/06/24 07:02:54;;;;;;;4.60;3.17;;;23.60;99.90;;;;;;5094629;28;20471;-57
2022/06/24 07:05:22;;;;;;;6.13;3.50;;;24.30;99.90;;;;;;5094304;28;20485;-58
2022/06/24 07:07:50;;;;;;;5.50;2.43;;;24.40;99.90;;;;;;5094486;28;20443;-58
2022/06/24 07:10:17;;;;;;;4.00;2.73;;;25.00;99.90;;;;;;5094181;28;20467;-58
2022/06/24 07:12:44;;;;;;;4.20;2.87;;;25.50;99.90;;;;;;5094514;28;20448;-58
2022/06/24 07:15:14;;;;;;;5.10;2.73;;;25.20;99.90;;;;;;5094128;28;20486;-58
2022/06/24 07:17:41;;;;;;;10.83;3.03;;;25.10;99.90;;;;;;5094015;28;20495;-58
2022/06/24 07:20:10;;;;;;;6.30;3.10;;;25.30;99.90;;;;;;5094353;28;20574;-58
2022/06/24 07:22:39;;;;;;;4.93;2.73;;;25.10;99.90;;;;;;5093941;28;20428;-58
2022/06/24 07:25:08;;;;;;;5.60;3.00;;;25.10;99.90;;;;;;5093800;28;20797;-58
2022/06/24 07:27:35;;;;;;;4.10;3.00;;;25.60;99.90;;;;;;5093932;28;20449;-57
2022/06/24 07:30:04;;;;;;;6.83;2.77;;;26.30;99.90;;;;;;5093736;28;20464;-57
2022/06/24 07:32:31;;;;;;;4.73;2.77;;;26.80;99.90;;;;;;5093993;28;20455;-58
2022/06/24 07:34:59;;;;;;;3.13;2.63;;;26.80;99.90;;;;;;5093903;28;20471;-58
2022/06/24 07:37:26;;;;;;;7.20;2.80;;;26.20;99.90;;;;;;5093612;28;20504;-57
2022/06/24 07:39:54;;;;;;;2.67;2.30;;;26.50;99.90;;;;;;5093905;28;20463;-57
2022/06/24 07:42:22;;;;;;;8.00;3.00;;;25.30;99.90;;;;;;5093625;28;20534;-57
2022/06/24 07:44:49;;;;;;;6.43;3.87;;;24.80;99.90;;;;;;5093284;28;20992;-57
2022/06/24 07:47:16;;;;;;;4.40;2.90;;;24.70;99.90;;;;;;5093718;28;20938;-57
2022/06/24 07:49:43;;;;;;;8.00;2.80;;;24.00;99.90;;;;;;5093788;28;20463;-57
2022/06/24 07:52:11;;;;;;;4.60;2.67;;;24.40;99.90;;;;;;5093753;28;20530;-57
2022/06/24 07:54:39;;;;;;;8.47;2.83;;;25.00;99.90;;;;;;5092731;28;20884;-58
2022/06/24 07:57:06;;;;;;;4.53;2.70;;;24.70;99.90;;;;;;5093506;28;20530;-58
2022/06/24 07:59:35;;;;;;;3.93;2.90;;;25.10;99.90;;;;;;5093559;28;20463;-57
2022/06/24 08:02:04;;;;;;;3.53;2.90;;;25.80;99.90;;;;;;5093233;28;20479;-58
2022/06/24 08:04:31;;;;;;;5.63;3.20;;;26.30;99.90;;;;;;5093279;28;20447;-58
2022/06/24 08:06:59;;;;;;;3.07;2.73;;;26.40;99.90;;;;;;5093651;28;20446;-58
2022/06/24 08:09:30;;;;;;;6.50;2.90;;;27.10;99.90;;;;;;5094001;28;20554;-58
2022/06/24 08:11:57;;;;;;;3.83;2.30;;;27.20;99.90;;;;;;5093640;28;20434;-58
2022/06/24 08:14:26;;;;;;;4.13;2.37;;;27.50;99.90;;;;;;5093305;28;20505;-58
2022/06/24 08:16:53;;;;;;;5.33;2.63;;;28.20;99.90;;;;;;5093294;28;20451;-58
2022/06/24 08:19:21;;;;;;;4.80;2.13;;;;;;;;;;5093767;28;20536;-57
2022/06/24 08:21:48;;;;;;;3.10;2.80;;;27.90;99.90;;;;;;5093562;28;20451;-57
2022/06/24 08:24:15;;;;;;;4.10;2.50;;;28.00;99.90;;;;;;5093513;28;20482;-57
2022/06/24 08:26:42;;;;;;;2.30;2.00;;;27.60;99.50;;;;;;5093480;28;20548;-57
2022/06/24 08:29:11;;;;;;;3.17;2.10;;;27.40;99.90;;;;;;5093147;28;21024;-58
2022/06/24 08:31:39;;;;;;;7.13;2.40;;;27.90;99.70;;;;;;5093451;28;20498;-57
2022/06/24 08:34:07;;;;;;;3.30;2.10;;;27.90;99.40;;;;;;5093083;28;20478;-57
2022/06/24 08:36:34;;;;;;;2.70;2.50;;;28.70;98.70;;;;;;5093512;28;20505;-57
2022/06/24 08:39:01;;;;;;;2.37;2.10;;;28.50;98.10;;;;;;5092724;28;20479;-57
2022/06/24 08:41:29;;;;;;;5.40;3.17;;;28.40;97.50;;;;;;5093111;28;20993;-58
2022/06/24 08:43:58;;;;;;;3.93;2.20;;;28.80;97.50;;;;;;5093034;28;21021;-58
2022/06/24 08:46:26;;;;;;;5.20;2.20;;;;;;;;;;5093055;28;20454;-57
2022/06/24 08:48:58;;;;;;;5.30;2.53;;;28.20;97.00;;;;;;5093268;28;20456;-57
2022/06/24 08:51:27;;;;;;;2.73;2.00;;;28.20;97.70;;;;;;5093285;28;20424;-57
2022/06/24 08:53:57;;;;;;;4.40;2.20;;;27.30;98.60;;;;;;5092750;28;21001;-57
2022/06/24 08:56:25;;;;;;;4.30;2.43;;;27.20;98.80;;;;;;5092725;28;20432;-58
2022/06/24 08:58:54;;;;;;;4.23;2.37;;;26.80;98.90;;;;;;5093181;28;20546;-57
2022/06/24 09:01:22;;;;;;;2.97;2.63;;;26.40;99.90;;;;;;5092967;28;20489;-57
2022/06/24 09:03:49;;;;;;;3.40;2.90;;;26.00;99.50;;;;;;5092864;28;20443;-57
2022/06/24 09:06:18;;;;;;;2.80;2.50;;;25.50;99.90;;;;;;5094928;28;20440;-57
2022/06/24 09:08:48;;;;;;;4.17;2.77;;;25.40;99.90;;;;;;5096894;28;20513;-57
2022/06/24 09:11:16;;;;;;;5.67;2.50;;;25.60;99.90;;;;;;5096614;28;20490;-57
2022/06/24 09:13:45;;;;;;;4.00;2.23;;;25.90;99.90;;;;;;5096326;28;20483;-57
2022/06/24 09:16:15;;;;;;;5.40;2.50;;;25.30;99.90;;;;;;5096492;28;20528;-58
2022/06/24 09:18:42;;;;;;;5.90;2.50;;;26.60;99.90;;;;;;5096840;28;20552;-57
2022/06/24 09:21:24;;;;;;;2.77;2.50;;;27.60;99.80;;;;;;5096308;28;21011;-58
2022/06/24 09:23:53;;;;;;;2.87;2.33;;;28.00;98.50;;;;;;5096501;28;20423;-58
2022/06/24 09:26:38;;;;;;;5.77;2.60;;;;;;;;;;5095891;28;20546;-58
2022/06/24 09:29:07;;;;;;;2.50;2.30;;;30.00;97.60;;;;;;5096496;28;20887;-58
2022/06/24 09:31:35;;;;;;;2.40;2.10;;;30.80;96.20;;;;;;5078211;28;20938;-58
2022/06/24 09:34:10;;;;;;;5.70;2.40;;;30.50;94.60;;;;;;5096278;28;20562;-58
2022/06/24 09:36:40;;;;;;;3.30;2.30;;;28.70;95.20;;;;;;5096455;28;20475;-58
2022/06/24 09:39:11;;;;;;;2.40;2.20;;;28.10;96.80;;;;;;5095559;28;20590;-58
2022/06/24 09:41:46;;;;;;;2.53;2.33;;;28.90;96.70;;;;;;5097026;28;20431;-58
2022/06/24 09:44:14;;;;;;;4.80;2.33;;;29.50;95.80;;;;;;5096096;28;20443;-58
2022/06/24 09:46:41;;;;;;;2.50;2.10;;;29.80;96.70;;;;;;5095824;28;20443;-58
2022/06/24 09:49:11;;;;;;;3.40;2.77;;;29.40;96.00;;;;;;5096286;28;20566;-58
2022/06/24 09:51:43;;;;;;;4.37;2.80;;;28.40;98.00;;;;;;5096187;28;20497;-58
2022/06/24 09:54:11;;;;;;;6.23;2.87;;;27.70;99.00;;;;;;5095990;28;20520;-58
2022/06/24 09:56:39;;;;;;;4.03;2.07;;;27.60;99.80;;;;;;5095931;28;20531;-58
2022/06/24 10:01:54;;;;;;;2.67;2.20;;;28.70;98.00;;;;;;5095721;28;20419;-58
2022/06/24 10:04:22;;;;;;;6.90;2.60;;;29.80;96.60;;;;;;5095498;28;20802;-58
2022/06/24 10:06:51;;;;;;;3.30;2.67;;;30.30;95.70;;;;;;5095729;28;20530;-58
2022/06/24 10:09:23;;;;;;;5.40;2.73;;;30.60;95.00;;;;;;5095348;28;21020;-58
2022/06/24 10:11:52;;;;;;;2.10;2.00;;;30.60;94.80;;;;;;5096518;28;20428;-58
2022/06/24 10:14:20;;;;;;;3.47;2.03;;;29.40;94.30;;;;;;5095256;28;20522;-58
2022/06/24 10:16:50;;;;;;;5.83;2.33;;;28.60;95.50;;;;;;5094569;28;20535;-57
2022/06/24 10:19:20;;;;;;;4.57;2.60;;;29.10;95.70;;;;;;5095801;28;20499;-57
2022/06/24 10:21:48;;;;;;;4.70;3.07;;;28.70;94.40;;;;;;5095448;28;20467;-58
2022/06/24 10:24:18;;;;;;;5.10;2.53;;;28.50;95.70;;;;;;5095438;28;20444;-58
2022/06/24 10:26:47;;;;;;;4.10;2.50;;;28.00;95.70;;;;;;5095042;28;20504;-57
2022/06/24 10:29:22;;;;;;;7.13;3.40;;;27.80;96.50;;;;;;5095297;28;20567;-57
2022/06/24 10:32:04;;;;;;;11.67;3.10;;;27.50;98.00;;;;;;5094991;28;20431;-57
2022/06/24 10:34:34;;;;;;;11.10;3.23;;;27.20;99.60;;;;;;5095186;28;20483;-58
2022/06/24 10:37:04;;;;;;;3.17;2.47;;;26.90;99.90;;;;;;5095076;28;20542;-57
2022/06/24 10:39:34;;;;;;;4.40;3.40;;;26.50;99.90;;;;;;5093532;28;20475;-58
2022/06/24 10:42:04;;;;;;;4.30;2.83;;;26.30;99.90;;;;;;5095179;28;20486;-58
2022/06/24 10:44:32;;;;;;;4.70;3.20;;;26.30;99.90;;;;;;5094943;28;20861;-57
2022/06/24 10:47:29;;;;;;;3.37;2.87;;;26.30;99.90;;;;;;5094612;28;20448;-58
2022/06/24 10:50:04;;;;;;;4.20;3.67;;;26.80;99.90;;;;;;5094947;28;20883;-58
2022/06/24 10:52:33;;;;;;;4.03;2.40;;;27.10;99.90;;;;;;5094437;28;20427;-58
2022/06/24 10:55:41;;;;;;;9.50;3.20;;;27.20;99.90;;;;;;5094728;28;20483;-58
2022/06/24 10:58:13;;;;;;;3.63;3.10;;;27.20;99.90;;;;;;5012540;28;20431;-58
2022/06/24 11:00:53;;;;;;;3.07;2.67;;;27.30;99.90;;;;;;5084648;28;20965;-58
2022/06/24 11:03:24;;;;;;;5.90;3.00;;;27.50;99.90;;;;;;5094751;28;20447;-58
2022/06/24 11:05:52;;;;;;;4.60;3.03;;;27.50;99.90;;;;;;5094696;28;20842;-58
2022/06/24 11:08:20;;;;;;;3.47;2.77;;;28.80;99.90;;;;;;5094133;28;20964;-58
2022/06/24 11:10:50;;;;;;;4.23;2.87;;;29.40;98.80;;;;;;5094582;28;20550;-58
2022/06/24 11:13:18;;;;;;;3.90;2.47;;;29.00;98.30;;;;;;5094020;28;20482;-58
2022/06/24 11:15:49;;;;;;;3.80;2.73;;;29.10;98.50;;;;;;5093879;28;20479;-58
2022/06/24 11:18:18;;;;;;;2.97;2.67;;;29.20;98.20;;;;;;5094375;28;20546;-57
2022/06/24 11:20:47;;;;;;;4.90;2.70;;;28.80;99.00;;;;;;5093721;28;20807;-57
2022/06/24 11:23:17;;;;;;;3.27;2.93;;;28.90;98.60;;;;;;5094067;28;20447;-57
2022/06/24 11:25:49;;;;;;;3.90;2.87;;;29.20;98.80;;;;;;5093834;28;20946;-57
2022/06/24 11:28:21;;;;;;;5.00;2.87;;;28.70;98.30;;;;;;5094150;28;20502;-57
2022/06/24 11:30:49;;;;;;;2.90;2.57;;;28.40;98.70;;;;;;5093549;28;20506;-57
2022/06/24 11:33:17;;;;;;;4.43;2.90;;;28.40;98.50;;;;;;5093650;28;20475;-57
2022/06/24 11:35:46;;;;;;;5.33;2.70;;;28.30;98.60;;;;;;5093684;28;20485;-57
2022/06/24 11:38:13;;;;;;;3.20;2.70;;;28.10;98.40;;;;;;5097026;28;20565;-58
2022/06/24 11:40:41;;;;;;;5.40;3.07;;;28.10;98.30;;;;;;5100269;28;20813;-58
2022/06/24 11:43:12;;;;;;;5.07;2.37;;;28.10;99.90;;;;;;5109767;28;20446;-56
2022/06/24 11:45:41;;;;;;;2.90;2.60;;;27.90;98.40;;;;;;5111866;28;20430;-54
2022/06/24 11:48:11;;;;;;;3.90;3.53;;;27.90;98.00;;;;;;5108695;28;20458;-54
2022/06/24 11:50:38;;;;;;;3.10;2.80;;;28.00;97.80;;;;;;5103954;28;20516;-55
2022/06/24 11:53:07;;;;;;;10.13;2.83;;;28.20;97.60;;;;;;5108195;28;20458;-58
2022/06/24 11:55:37;;;;;;;3.27;1.80;;;27.80;97.60;;;;;;5097644;28;20565;-59
2022/06/24 11:58:07;;;;;;;2.80;2.60;;;27.50;98.00;;;;;;5096657;28;20466;-58
2022/06/24 12:00:37;;;;;;;4.80;2.20;;;27.90;97.20;;;;;;5098941;28;20471;-57
2022/06/24 12:03:07;;;;;;;3.13;2.30;;;27.40;97.30;;;;;;5101177;28;20584;-59
2022/06/24 12:05:38;;;;;;;4.50;2.50;;;27.00;97.80;;;;;;5099729;28;20458;-57
2022/06/24 12:08:06;;;;;;;7.10;2.93;;;26.80;98.80;;;;;;5096088;28;20560;-55
2022/06/24 12:10:34;;;;;;;3.67;2.30;;;26.80;98.50;;;;;;5097159;28;20471;-56
2022/06/24 12:13:03;;;;;;;3.13;2.30;;;26.70;98.80;;;;;;5100017;28;20459;-58
2022/06/24 12:15:53;;;;;;;5.80;2.60;;;26.70;98.70;;;;;;5099990;28;20497;-56
2022/06/24 12:18:23;;;;;;;4.90;3.10;;;26.80;98.70;;;;;;5096590;28;20467;-56
2022/06/24 12:21:01;;;;;;;5.73;2.87;;;26.80;98.30;;;;;;5096663;28;20475;-55
2022/06/24 12:23:38;;;;;;;2.63;2.43;;;26.90;98.10;;;;;;5112206;28;20469;-52
2022/06/24 12:26:08;;;;;;;4.00;2.80;;;27.10;98.10;;;;;;5103785;28;20526;-56
2022/06/24 12:28:35;;;;;;;3.20;2.47;;;27.20;98.50;;;;;;5101461;28;20960;-60
2022/06/24 12:31:06;;;;;;;3.40;2.37;;;26.90;98.30;;;;;;5105678;28;20513;-62
2022/06/24 12:33:36;;;;;;;3.73;2.20;;;26.80;98.50;;;;;;5101234;28;20534;-56
2022/06/24 12:36:10;;;;;;;4.73;2.30;;;26.50;99.30;;;;;;5102260;28;20571;-56
2022/06/24 12:38:38;;;;;;;6.00;2.40;;;26.50;99.10;;;;;;5098644;28;20493;-54
2022/06/24 12:41:08;;;;;;;4.70;2.23;;;26.30;96.80;;;;;;5096248;27;21139;-53
2022/06/24 12:43:35;;;;;;;2.83;2.27;;;26.20;97.80;;;;;;5098614;28;20468;-54
2022/06/24 12:46:06;;;;;;;4.43;4.07;;;26.00;98.20;;;;;;5102966;27;20860;-54
2022/06/24 12:51:25;;;;;;;3.77;2.63;;;25.50;99.90;;;;;;5096478;27;20948;-52
2022/06/24 12:53:54;;;;;;;3.50;2.60;;;24.80;99.90;;;;;;5098301;28;20544;-55
2022/06/24 12:56:24;;;;;;;4.80;2.97;;;24.70;99.90;;;;;;5098732;27;20576;-52
2022/06/24 12:58:52;;;;;;;2.93;2.73;;;24.40;99.90;;;;;;5097795;28;20973;-51
2022/06/24 13:01:21;;;;;;;3.20;2.83;;;23.90;99.90;;;;;;5099053;27;21000;-55
2022/06/24 13:03:48;;;;;;;5.97;3.23;;;23.70;99.90;;;;;;5102644;28;20454;-52
2022/06/24 13:06:20;;;;;;;4.30;3.60;;;23.80;99.90;;;;;;5109548;28;20447;-53
2022/06/24 13:08:47;;;;;;;5.27;3.10;;;23.80;99.90;;;;;;5100255;28;20546;-55
2022/06/24 13:11:14;;;;;;;3.83;2.80;;;23.60;99.90;;;;;;5099564;27;21334;-58